sensor_id;sensor_type;location;lat;lon;timestamp;pressure;altitude;pressure_sealevel;temperature;humidity
49030;BME280;43337;52.070;4.508;2023-05-01T00:02:15;101933.97;;;11.30;100.00
49030;BME280;43337;52.070;4.508;2023-05-01T00:04:40;101945.09;;;11.40;100.00
49030;BME280;43337;52.070;4.508;2023-05-01T00:07:05;101948.69;;;11.37;100.00
49030;BME280;43337;52.070;4.508;2023-05-01T00:09:31;101937.34;;;11.34;100.00
49030;BME280;43337;52.070;4.508;2023-05-01T00:11:56;101935.91;;;11.23;100.00
49030;BME280;43337;52.070;4.508;2023-05-01T00:14:21;101941.91;;;11.29;100.00
49030;BME280;43337;52.070;4.508;2023-05-01T00:16:47;101930.66;;;11.22;100.00
49030;BME280;43337;52.070;4.508;2023-05-01T00:19:12;101926.28;;;11.22;100.00
49030;BME280;43337;52.070;4.508;2023-05-01T00:21:43;101922.88;;;11.17;100.00
49030;BME280;43337;52.070;4.508;2023-05-01T00:24:10;101921.25;;;11.13;100.00
49030;BME280;43337;52.070;4.508;2023-05-01T00:26:35;101898.84;;;10.97;100.00
49030;BME280;43337;52.070;4.508;2023-05-01T00:29:00;101917.94;;;11.05;100.00
49030;BME280;43337;52.070;4.508;2023-05-01T00:31:27;101919.78;;;11.03;100.00
49030;BME280;43337;52.070;4.508;2023-05-01T00:33:52;101914.66;;;10.97;100.00
49030;BME280;43337;52.070;4.508;2023-05-01T00:36:18;101919.88;;;10.98;100.00
49030;BME280;43337;52.070;4.508;2023-05-01T00:38:43;101926.13;;;10.96;100.00
49030;BME280;43337;52.070;4.508;2023-05-01T00:41:10;101922.72;;;10.91;100.00
49030;BME280;43337;52.070;4.508;2023-05-01T00:43:36;101921.00;;;10.90;100.00
49030;BME280;43337;52.070;4.508;2023-05-01T00:46:01;101919.22;;;10.90;100.00
49030;BME280;43337;52.070;4.508;2023-05-01T00:48:27;101916.63;;;10.89;100.00
49030;BME280;43337;52.070;4.508;2023-05-01T00:50:53;101913.16;;;10.87;100.00
49030;BME280;43337;52.070;4.508;2023-05-01T00:53:21;101903.63;;;10.83;100.00
49030;BME280;43337;52.070;4.508;2023-05-01T00:55:47;101894.06;;;10.79;100.00
49030;BME280;43337;52.070;4.508;2023-05-01T00:58:15;101893.06;;;10.84;100.00
49030;BME280;43337;52.070;4.508;2023-05-01T01:00:41;101883.53;;;10.79;100.00
49030;BME280;43337;52.070;4.508;2023-05-01T01:03:07;101871.41;;;10.73;100.00
49030;BME280;43337;52.070;4.508;2023-05-01T01:05:39;101880.91;;;10.79;100.00
49030;BME280;43337;52.070;4.508;2023-05-01T01:08:27;101880.09;;;10.75;100.00
49030;BME280;43337;52.070;4.508;2023-05-01T01:11:00;101860.06;;;10.69;100.00
49030;BME280;43337;52.070;4.508;2023-05-01T01:13:54;101861.78;;;10.70;100.00
49030;BME280;43337;52.070;4.508;2023-05-01T01:16:28;101846.16;;;10.64;100.00
49030;BME280;43337;52.070;4.508;2023-05-01T01:19:24;101841.06;;;10.58;100.00
49030;BME280;43337;52.070;4.508;2023-05-01T01:22:03;101843.69;;;10.58;100.00
49030;BME280;43337;52.070;4.508;2023-05-01T01:30:23;101842.13;;;10.51;100.00
49030;BME280;43337;52.070;4.508;2023-05-01T01:33:31;101848.31;;;10.48;100.00
49030;BME280;43337;52.070;4.508;2023-05-01T01:36:05;101840.53;;;10.44;100.00
49030;BME280;43337;52.070;4.508;2023-05-01T01:38:39;101831.84;;;10.42;100.00
49030;BME280;43337;52.070;4.508;2023-05-01T01:41:32;101820.53;;;10.38;100.00
49030;BME280;43337;52.070;4.508;2023-05-01T01:44:26;101819.63;;;10.39;100.00
49030;BME280;43337;52.070;4.508;2023-05-01T01:46:53;101811.00;;;10.33;100.00
49030;BME280;43337;52.070;4.508;2023-05-01T01:49:22;101825.00;;;10.35;100.00
49030;BME280;43337;52.070;4.508;2023-05-01T01:51:50;101822.38;;;10.35;100.00
49030;BME280;43337;52.070;4.508;2023-05-01T01:54:22;101811.97;;;10.29;100.00
49030;BME280;43337;52.070;4.508;2023-05-01T01:56:50;101817.25;;;10.29;100.00
49030;BME280;43337;52.070;4.508;2023-05-01T01:59:19;101812.91;;;10.26;100.00
49030;BME280;43337;52.070;4.508;2023-05-01T02:01:47;101813.81;;;10.25;100.00
49030;BME280;43337;52.070;4.508;2023-05-01T02:04:15;101809.44;;;10.24;100.00
49030;BME280;43337;52.070;4.508;2023-05-01T02:06:43;101796.28;;;10.24;100.00
49030;BME280;43337;52.070;4.508;2023-05-01T02:09:11;101787.59;;;10.20;100.00
49030;BME280;43337;52.070;4.508;2023-05-01T02:11:36;101794.50;;;10.26;100.00
49030;BME280;43337;52.070;4.508;2023-05-01T02:14:02;101791.00;;;10.25;100.00
49030;BME280;43337;52.070;4.508;2023-05-01T02:16:28;101784.97;;;10.20;100.00
49030;BME280;43337;52.070;4.508;2023-05-01T02:18:55;101784.97;;;10.20;100.00
49030;BME280;43337;52.070;4.508;2023-05-01T02:21:21;101777.16;;;10.17;100.00
49030;BME280;43337;52.070;4.508;2023-05-01T02:23:47;101788.38;;;10.24;100.00
49030;BME280;43337;52.070;4.508;2023-05-01T02:26:15;101767.53;;;10.16;100.00
49030;BME280;43337;52.070;4.508;2023-05-01T02:28:41;101772.75;;;10.18;100.00
49030;BME280;43337;52.070;4.508;2023-05-01T02:31:08;101780.53;;;10.22;100.00
49030;BME280;43337;52.070;4.508;2023-05-01T02:33:33;101767.59;;;10.15;100.00
49030;BME280;43337;52.070;4.508;2023-05-01T02:35:58;101776.22;;;10.18;100.00
49030;BME280;43337;52.070;4.508;2023-05-01T02:38:24;101756.22;;;10.13;100.00
49030;BME280;43337;52.070;4.508;2023-05-01T02:40:51;101775.38;;;10.18;100.00
49030;BME280;43337;52.070;4.508;2023-05-01T02:43:20;101760.50;;;10.17;100.00
49030;BME280;43337;52.070;4.508;2023-05-01T02:45:46;101758.84;;;10.13;100.00
49030;BME280;43337;52.070;4.508;2023-05-01T02:48:17;101738.84;;;10.06;100.00
49030;BME280;43337;52.070;4.508;2023-05-01T02:50:45;101749.97;;;10.17;100.00
49030;BME280;43337;52.070;4.508;2023-05-01T02:53:14;101746.44;;;10.18;100.00
49030;BME280;43337;52.070;4.508;2023-05-01T02:55:40;101738.59;;;10.16;100.00
49030;BME280;43337;52.070;4.508;2023-05-01T02:58:07;101738.53;;;10.18;100.00
49030;BME280;43337;52.070;4.508;2023-05-01T03:00:32;101745.56;;;10.17;100.00
49030;BME280;43337;52.070;4.508;2023-05-01T03:02:59;101735.16;;;10.13;100.00
49030;BME280;43337;52.070;4.508;2023-05-01T03:05:24;101731.81;;;10.08;100.00
49030;BME280;43337;52.070;4.508;2023-05-01T03:07:50;101745.69;;;10.13;100.00
49030;BME280;43337;52.070;4.508;2023-05-01T03:10:16;101745.75;;;10.11;100.00
49030;BME280;43337;52.070;4.508;2023-05-01T03:12:41;101734.38;;;10.09;100.00
49030;BME280;43337;52.070;4.508;2023-05-01T03:15:08;101733.59;;;10.06;100.00
49030;BME280;43337;52.070;4.508;2023-05-01T03:17:36;101733.47;;;10.10;100.00
49030;BME280;43337;52.070;4.508;2023-05-01T03:20:04;101725.56;;;10.10;100.00
49030;BME280;43337;52.070;4.508;2023-05-01T03:22:35;101723.84;;;10.09;100.00
49030;BME280;43337;52.070;4.508;2023-05-01T03:25:00;101717.78;;;10.07;100.00
49030;BME280;43337;52.070;4.508;2023-05-01T03:27:26;101722.22;;;10.05;100.00
49030;BME280;43337;52.070;4.508;2023-05-01T03:29:51;101711.75;;;10.03;100.00
49030;BME280;43337;52.070;4.508;2023-05-01T03:32:17;101710.00;;;10.02;100.00
49030;BME280;43337;52.070;4.508;2023-05-01T03:34:42;101703.88;;;10.02;100.00
49030;BME280;43337;52.070;4.508;2023-05-01T03:37:09;101712.63;;;10.02;100.00
49030;BME280;43337;52.070;4.508;2023-05-01T03:39:34;101678.03;;;9.84;100.00
49030;BME280;43337;52.070;4.508;2023-05-01T03:41:59;101670.19;;;9.82;100.00
49030;BME280;43337;52.070;4.508;2023-05-01T03:44:25;101694.47;;;9.93;100.00
49030;BME280;43337;52.070;4.508;2023-05-01T03:46:50;101698.03;;;9.91;100.00
49030;BME280;43337;52.070;4.508;2023-05-01T03:49:15;101698.00;;;9.92;100.00
49030;BME280;43337;52.070;4.508;2023-05-01T03:51:41;101673.88;;;9.75;100.00
49030;BME280;43337;52.070;4.508;2023-05-01T03:54:06;101705.88;;;9.92;100.00
49030;BME280;43337;52.070;4.508;2023-05-01T03:56:32;101695.44;;;9.89;100.00
49030;BME280;43337;52.070;4.508;2023-05-01T03:59:00;101690.19;;;9.89;100.00
49030;BME280;43337;52.070;4.508;2023-05-01T04:01:25;101679.78;;;9.85;100.00
49030;BME280;43337;52.070;4.508;2023-05-01T04:03:51;101693.66;;;9.90;100.00
49030;BME280;43337;52.070;4.508;2023-05-01T04:06:17;101693.59;;;9.93;100.00
49030;BME280;43337;52.070;4.508;2023-05-01T04:08:43;101695.25;;;9.95;100.00
49030;BME280;43337;52.070;4.508;2023-05-01T04:11:08;101690.00;;;9.95;100.00
49030;BME280;43337;52.070;4.508;2023-05-01T04:13:35;101688.34;;;9.93;100.00
49030;BME280;43337;52.070;4.508;2023-05-01T04:16:00;101690.84;;;9.97;100.00
49030;BME280;43337;52.070;4.508;2023-05-01T04:18:26;101682.22;;;9.92;100.00
49030;BME280;43337;52.070;4.508;2023-05-01T04:20:51;101677.75;;;9.96;100.00
49030;BME280;43337;52.070;4.508;2023-05-01T04:23:16;101675.91;;;9.99;100.00
49030;BME280;43337;52.070;4.508;2023-05-01T04:25:42;101679.34;;;10.01;100.00
49030;BME280;43337;52.070;4.508;2023-05-01T04:28:10;101671.38;;;10.03;100.00
49030;BME280;43337;52.070;4.508;2023-05-01T04:30:36;101684.47;;;10.06;100.00
49030;BME280;43337;52.070;4.508;2023-05-01T04:33:01;101662.56;;;10.06;100.00
49030;BME280;43337;52.070;4.508;2023-05-01T04:35:28;101672.16;;;10.08;100.00
49030;BME280;43337;52.070;4.508;2023-05-01T04:37:53;101672.00;;;10.13;100.00
49030;BME280;43337;52.070;4.508;2023-05-01T04:40:18;101672.00;;;10.13;100.00
49030;BME280;43337;52.070;4.508;2023-05-01T04:42:44;101672.78;;;10.16;100.00
49030;BME280;43337;52.070;4.508;2023-05-01T04:45:10;101661.44;;;10.14;100.00
49030;BME280;43337;52.070;4.508;2023-05-01T04:47:35;101660.66;;;10.11;100.00
49030;BME280;43337;52.070;4.508;2023-05-01T04:50:01;101674.50;;;10.19;100.00
49030;BME280;43337;52.070;4.508;2023-05-01T04:52:26;101666.69;;;10.16;100.00
49030;BME280;43337;52.070;4.508;2023-05-01T04:54:52;101665.81;;;10.15;100.00
49030;BME280;43337;52.070;4.508;2023-05-01T04:57:17;101671.03;;;10.17;100.00
49030;BME280;43337;52.070;4.508;2023-05-01T04:59:42;101664.19;;;10.11;100.00
49030;BME280;43337;52.070;4.508;2023-05-01T05:02:08;101668.53;;;10.12;100.00
49030;BME280;43337;52.070;4.508;2023-05-01T05:04:33;101678.91;;;10.17;100.00
49030;BME280;43337;52.070;4.508;2023-05-01T05:06:59;101673.66;;;10.17;100.00
49030;BME280;43337;52.070;4.508;2023-05-01T05:09:24;101675.28;;;10.21;100.00
49030;BME280;43337;52.070;4.508;2023-05-01T05:11:49;101674.34;;;10.23;100.00
49030;BME280;43337;52.070;4.508;2023-05-01T05:14:15;101669.94;;;10.25;100.00
49030;BME280;43337;52.070;4.508;2023-05-01T05:16:40;101676.91;;;10.28;100.00
49030;BME280;43337;52.070;4.508;2023-05-01T05:19:06;101658.56;;;10.23;100.00
49030;BME280;43337;52.070;4.508;2023-05-01T05:21:31;101670.69;;;10.31;100.00
49030;BME280;43337;52.070;4.508;2023-05-01T05:23:57;101670.63;;;10.32;100.00
49030;BME280;43337;52.070;4.508;2023-05-01T05:26:22;101669.69;;;10.35;100.00
49030;BME280;43337;52.070;4.508;2023-05-01T05:28:49;101668.72;;;10.37;100.00
49030;BME280;43337;52.070;4.508;2023-05-01T05:31:15;101672.97;;;10.43;100.00
49030;BME280;43337;52.070;4.508;2023-05-01T05:33:40;101671.03;;;10.49;100.00
49030;BME280;43337;52.070;4.508;2023-05-01T05:36:05;101675.53;;;10.46;100.00
49030;BME280;43337;52.070;4.508;2023-05-01T05:38:31;101680.47;;;10.57;100.00
49030;BME280;43337;52.070;4.508;2023-05-01T05:40:56;101674.25;;;10.59;100.00
49030;BME280;43337;52.070;4.508;2023-05-01T05:43:23;101669.84;;;10.60;100.00
49030;BME280;43337;52.070;4.508;2023-05-01T05:45:48;101673.09;;;10.68;100.00
49030;BME280;43337;52.070;4.508;2023-05-01T05:48:14;101684.34;;;10.74;100.00
49030;BME280;43337;52.070;4.508;2023-05-01T05:50:39;101679.94;;;10.75;100.00
49030;BME280;43337;52.070;4.508;2023-05-01T05:53:05;101682.41;;;10.80;100.00
49030;BME280;43337;52.070;4.508;2023-05-01T05:55:30;101669.38;;;10.77;100.00
49030;BME280;43337;52.070;4.508;2023-05-01T05:57:55;101655.34;;;10.74;100.00
49030;BME280;43337;52.070;4.508;2023-05-01T06:00:21;101667.44;;;10.82;100.00
49030;BME280;43337;52.070;4.508;2023-05-01T06:02:46;101666.53;;;10.83;100.00
49030;BME280;43337;52.070;4.508;2023-05-01T06:05:12;101651.56;;;10.85;100.00
49030;BME280;43337;52.070;4.508;2023-05-01T06:07:37;101656.66;;;10.89;100.00
49030;BME280;43337;52.070;4.508;2023-05-01T06:10:04;101653.94;;;10.92;100.00
49030;BME280;43337;52.070;4.508;2023-05-01T06:12:30;101644.28;;;10.91;100.00
49030;BME280;43337;52.070;4.508;2023-05-01T06:14:56;101646.91;;;10.93;100.00
49030;BME280;43337;52.070;4.508;2023-05-01T06:17:23;101662.31;;;11.05;100.00
49030;BME280;43337;52.070;4.508;2023-05-01T06:19:49;101656.91;;;11.10;100.00
49030;BME280;43337;52.070;4.508;2023-05-01T06:22:17;101651.53;;;11.13;100.00
49030;BME280;43337;52.070;4.508;2023-05-01T06:24:42;101653.16;;;11.17;100.00
49030;BME280;43337;52.070;4.508;2023-05-01T06:27:07;101653.06;;;11.20;100.00
49030;BME280;43337;52.070;4.508;2023-05-01T06:29:33;101650.28;;;11.24;100.00
49030;BME280;43337;52.070;4.508;2023-05-01T06:31:58;101648.56;;;11.23;100.00
49030;BME280;43337;52.070;4.508;2023-05-01T06:34:23;101656.22;;;11.31;100.00
49030;BME280;43337;52.070;4.508;2023-05-01T06:36:49;101652.00;;;11.25;100.00
49030;BME280;43337;52.070;4.508;2023-05-01T06:39:14;101665.75;;;11.35;100.00
49030;BME280;43337;52.070;4.508;2023-05-01T06:41:40;101654.28;;;11.38;100.00
49030;BME280;43337;52.070;4.508;2023-05-01T06:44:05;101652.50;;;11.38;100.00
49030;BME280;43337;52.070;4.508;2023-05-01T06:46:30;101647.97;;;11.42;100.00
49030;BME280;43337;52.070;4.508;2023-05-01T06:48:56;101651.38;;;11.45;100.00
49030;BME280;43337;52.070;4.508;2023-05-01T06:51:21;101652.09;;;11.49;100.00
49030;BME280;43337;52.070;4.508;2023-05-01T06:53:46;101657.97;;;11.59;100.00
49030;BME280;43337;52.070;4.508;2023-05-01T06:56:12;101658.72;;;11.62;100.00
49030;BME280;43337;52.070;4.508;2023-05-01T06:58:37;101651.66;;;11.63;100.00
49030;BME280;43337;52.070;4.508;2023-05-01T07:01:03;101656.69;;;11.70;100.00
49030;BME280;43337;52.070;4.508;2023-05-01T07:03:28;101661.78;;;11.75;100.00
49030;BME280;43337;52.070;4.508;2023-05-01T07:05:54;101644.34;;;11.71;100.00
49030;BME280;43337;52.070;4.508;2023-05-01T07:08:20;101659.81;;;11.82;100.00
49030;BME280;43337;52.070;4.508;2023-05-01T07:10:45;101654.53;;;11.82;100.00
49030;BME280;43337;52.070;4.508;2023-05-01T07:13:11;101656.25;;;11.84;100.00
49030;BME280;43337;52.070;4.508;2023-05-01T07:15:36;101652.59;;;11.88;100.00
49030;BME280;43337;52.070;4.508;2023-05-01T07:18:02;101637.94;;;11.78;100.00
49030;BME280;43337;52.070;4.508;2023-05-01T07:20:30;101665.38;;;11.99;100.00
49030;BME280;43337;52.070;4.508;2023-05-01T07:22:56;101659.38;;;11.95;100.00
49030;BME280;43337;52.070;4.508;2023-05-01T07:25:21;101665.13;;;12.07;100.00
49030;BME280;43337;52.070;4.508;2023-05-01T07:27:46;101649.44;;;12.02;100.00
49030;BME280;43337;52.070;4.508;2023-05-01T07:30:12;101669.34;;;12.12;100.00
49030;BME280;43337;52.070;4.508;2023-05-01T07:32:37;101660.56;;;12.12;100.00
49030;BME280;43337;52.070;4.508;2023-05-01T07:35:03;101650.91;;;12.11;100.00
49030;BME280;43337;52.070;4.508;2023-05-01T07:37:29;101656.81;;;12.17;100.00
49030;BME280;43337;52.070;4.508;2023-05-01T07:39:55;101652.34;;;12.19;100.00
49030;BME280;43337;52.070;4.508;2023-05-01T07:42:22;101657.38;;;12.27;100.00
49030;BME280;43337;52.070;4.508;2023-05-01T07:44:49;101654.63;;;12.30;100.00
49030;BME280;43337;52.070;4.508;2023-05-01T07:47:15;101650.22;;;12.29;100.00
49030;BME280;43337;52.070;4.508;2023-05-01T07:49:40;101662.13;;;12.41;100.00
49030;BME280;43337;52.070;4.508;2023-05-01T07:52:06;101656.41;;;12.53;100.00
49030;BME280;43337;52.070;4.508;2023-05-01T07:54:32;101652.59;;;12.60;100.00
49030;BME280;43337;52.070;4.508;2023-05-01T07:56:57;101648.50;;;12.75;100.00
49030;BME280;43337;52.070;4.508;2023-05-01T07:59:23;101661.19;;;12.89;100.00
49030;BME280;43337;52.070;4.508;2023-05-01T08:01:48;101659.00;;;13.00;100.00
49030;BME280;43337;52.070;4.508;2023-05-01T08:04:13;101653.53;;;13.05;100.00
49030;BME280;43337;52.070;4.508;2023-05-01T08:06:39;101651.56;;;13.10;100.00
49030;BME280;43337;52.070;4.508;2023-05-01T08:09:04;101651.34;;;13.14;100.00
49030;BME280;43337;52.070;4.508;2023-05-01T08:11:30;101661.63;;;13.24;100.00
49030;BME280;43337;52.070;4.508;2023-05-01T08:13:57;101670.19;;;13.30;100.00
49030;BME280;43337;52.070;4.508;2023-05-01T08:16:23;101645.84;;;13.20;100.00
49030;BME280;43337;52.070;4.508;2023-05-01T08:18:48;101669.72;;;13.41;100.00
49030;BME280;43337;52.070;4.508;2023-05-01T08:21:13;101659.81;;;13.46;100.00
49030;BME280;43337;52.070;4.508;2023-05-01T08:23:39;101663.94;;;13.53;100.00
49030;BME280;43337;52.070;4.508;2023-05-01T08:26:04;101674.25;;;13.59;100.00
49030;BME280;43337;52.070;4.508;2023-05-01T08:28:29;101659.31;;;13.58;100.00
49030;BME280;43337;52.070;4.508;2023-05-01T08:30:56;101667.84;;;13.65;100.00
49030;BME280;43337;52.070;4.508;2023-05-01T08:33:22;101671.91;;;13.74;100.00
49030;BME280;43337;52.070;4.508;2023-05-01T08:35:48;101666.53;;;13.75;100.00
49030;BME280;43337;52.070;4.508;2023-05-01T08:38:13;101667.22;;;13.80;100.00
49030;BME280;43337;52.070;4.508;2023-05-01T08:40:40;101675.88;;;13.84;100.00
49030;BME280;43337;52.070;4.508;2023-05-01T08:43:08;101674.00;;;13.86;100.00
49030;BME280;43337;52.070;4.508;2023-05-01T08:45:35;101685.47;;;13.86;100.00
49030;BME280;43337;52.070;4.508;2023-05-01T08:48:11;101683.75;;;13.85;100.00
49030;BME280;43337;52.070;4.508;2023-05-01T08:50:38;101700.38;;;13.89;100.00
49030;BME280;43337;52.070;4.508;2023-05-01T08:53:04;101691.56;;;13.88;100.00
49030;BME280;43337;52.070;4.508;2023-05-01T08:55:30;101698.78;;;13.85;100.00
49030;BME280;43337;52.070;4.508;2023-05-01T08:58:00;101685.06;;;13.75;100.00
49030;BME280;43337;52.070;4.508;2023-05-01T09:00:28;101682.56;;;13.72;100.00
49030;BME280;43337;52.070;4.508;2023-05-01T09:02:59;101696.38;;;13.79;100.00
49030;BME280;43337;52.070;4.508;2023-05-01T09:05:26;101696.31;;;13.80;100.00
49030;BME280;43337;52.070;4.508;2023-05-01T09:07:51;101699.88;;;13.79;100.00
49030;BME280;43337;52.070;4.508;2023-05-01T09:10:17;101699.94;;;13.78;100.00
49030;BME280;43337;52.070;4.508;2023-05-01T09:12:48;101698.28;;;13.75;100.00
49030;BME280;43337;52.070;4.508;2023-05-01T09:15:14;101693.38;;;13.66;100.00
49030;BME280;43337;52.070;4.508;2023-05-01T09:17:41;101695.22;;;13.64;100.00
49030;BME280;43337;52.070;4.508;2023-05-01T09:20:06;101713.44;;;13.72;100.00
49030;BME280;43337;52.070;4.508;2023-05-01T09:22:32;101721.63;;;13.65;100.00
49030;BME280;43337;52.070;4.508;2023-05-01T09:24:59;101716.66;;;13.58;100.00
49030;BME280;43337;52.070;4.508;2023-05-01T09:27:26;101706.59;;;13.46;100.00
49030;BME280;43337;52.070;4.508;2023-05-01T09:29:51;101704.38;;;13.35;100.00
49030;BME280;43337;52.070;4.508;2023-05-01T09:32:25;101713.16;;;13.35;100.00
49030;BME280;43337;52.070;4.508;2023-05-01T09:34:55;101724.97;;;13.27;100.00
49030;BME280;43337;52.070;4.508;2023-05-01T09:42:26;101740.31;;;12.93;100.00
49030;BME280;43337;52.070;4.508;2023-05-01T09:44:52;101725.84;;;12.80;100.00
49030;BME280;43337;52.070;4.508;2023-05-01T09:47:21;101730.53;;;12.72;100.00
49030;BME280;43337;52.070;4.508;2023-05-01T09:49:51;101729.28;;;12.59;100.00
49030;BME280;43337;52.070;4.508;2023-05-01T09:52:17;101733.00;;;12.53;100.00
49030;BME280;43337;52.070;4.508;2023-05-01T09:54:43;101735.03;;;12.45;100.00
49030;BME280;43337;52.070;4.508;2023-05-01T09:57:08;101738.88;;;12.36;100.00
49030;BME280;43337;52.070;4.508;2023-05-01T09:59:34;101737.53;;;12.25;100.00
49030;BME280;43337;52.070;4.508;2023-05-01T10:01:59;101743.19;;;12.14;100.00
49030;BME280;43337;52.070;4.508;2023-05-01T10:04:32;101747.94;;;12.04;100.00
49030;BME280;43337;52.070;4.508;2023-05-01T10:07:13;101756.25;;;11.92;100.00
49030;BME280;43337;52.070;4.508;2023-05-01T10:09:40;101749.59;;;11.80;100.00
49030;BME280;43337;52.070;4.508;2023-05-01T10:12:06;101751.56;;;11.73;100.00
49030;BME280;43337;52.070;4.508;2023-05-01T10:14:31;101742.44;;;11.56;100.00
49030;BME280;43337;52.070;4.508;2023-05-01T10:17:16;101753.63;;;11.64;100.00
49030;BME280;43337;52.070;4.508;2023-05-01T10:19:42;101742.25;;;11.62;100.00
49030;BME280;43337;52.070;4.508;2023-05-01T10:22:07;101749.97;;;11.68;100.00
49030;BME280;43337;52.070;4.508;2023-05-01T10:24:33;101748.22;;;11.68;100.00
49030;BME280;43337;52.070;4.508;2023-05-01T10:26:58;101749.84;;;11.72;100.00
49030;BME280;43337;52.070;4.508;2023-05-01T10:29:26;101748.09;;;11.71;100.00
49030;BME280;43337;52.070;4.508;2023-05-01T10:31:53;101752.47;;;11.72;100.00
49030;BME280;43337;52.070;4.508;2023-05-01T10:34:21;101747.19;;;11.72;100.00
49030;BME280;43337;52.070;4.508;2023-05-01T10:36:59;101755.06;;;11.74;100.00
49030;BME280;43337;52.070;4.508;2023-05-01T10:39:33;101749.78;;;11.74;100.00
49030;BME280;43337;52.070;4.508;2023-05-01T10:44:29;101736.78;;;11.68;100.00
49030;BME280;43337;52.070;4.508;2023-05-01T10:46:55;101748.91;;;11.73;100.00
49030;BME280;43337;52.070;4.508;2023-05-01T10:49:20;101761.09;;;11.78;100.00
49030;BME280;43337;52.070;4.508;2023-05-01T10:52:01;101755.16;;;11.71;100.00
49030;BME280;43337;52.070;4.508;2023-05-01T10:54:29;101751.66;;;11.70;100.00
49030;BME280;43337;52.070;4.508;2023-05-01T10:57:00;101745.56;;;11.68;100.00
49030;BME280;43337;52.070;4.508;2023-05-01T11:00:09;101760.38;;;11.72;100.00
49030;BME280;43337;52.070;4.508;2023-05-01T11:02:34;101758.28;;;11.84;100.00
49030;BME280;43337;52.070;4.508;2023-05-01T11:05:00;101750.25;;;11.87;100.00
49030;BME280;43337;52.070;4.508;2023-05-01T11:07:25;101746.41;;;11.97;100.00
49030;BME280;43337;52.070;4.508;2023-05-01T11:09:53;101746.09;;;12.06;100.00
49030;BME280;43337;52.070;4.508;2023-05-01T11:15:06;101748.75;;;12.31;100.00
49030;BME280;43337;52.070;4.508;2023-05-01T11:20:04;101754.25;;;12.50;100.00
49030;BME280;43337;52.070;4.508;2023-05-01T11:22:33;101743.34;;;12.59;100.00
49030;BME280;43337;52.070;4.508;2023-05-01T11:25:03;101746.56;;;12.67;100.00
49030;BME280;43337;52.070;4.508;2023-05-01T11:27:32;101739.28;;;12.74;100.00
49030;BME280;43337;52.070;4.508;2023-05-01T11:29:58;101730.13;;;12.83;100.00
49030;BME280;43337;52.070;4.508;2023-05-01T11:32:26;101733.81;;;13.02;100.00
49030;BME280;43337;52.070;4.508;2023-05-01T11:34:52;101735.97;;;13.14;100.00
49030;BME280;43337;52.070;4.508;2023-05-01T11:37:19;101734.53;;;13.29;100.00
49030;BME280;43337;52.070;4.508;2023-05-01T11:40:02;101728.97;;;13.37;100.00
49030;BME280;43337;52.070;4.508;2023-05-01T11:42:28;101744.91;;;13.57;100.00
49030;BME280;43337;52.070;4.508;2023-05-01T11:45:09;101742.50;;;13.73;100.00
49030;BME280;43337;52.070;4.508;2023-05-01T11:47:35;101740.28;;;13.84;100.00
49030;BME280;43337;52.070;4.508;2023-05-01T11:50:01;101743.38;;;13.94;100.00
49030;BME280;43337;52.070;4.508;2023-05-01T11:52:28;101745.09;;;13.95;100.00
49030;BME280;43337;52.070;4.508;2023-05-01T11:54:53;101741.66;;;13.93;100.00
49030;BME280;43337;52.070;4.508;2023-05-01T11:57:18;101736.13;;;13.99;100.00
49030;BME280;43337;52.070;4.508;2023-05-01T11:59:47;101744.53;;;14.09;100.00
49030;BME280;43337;52.070;4.508;2023-05-01T12:02:20;101746.38;;;14.27;100.00
49030;BME280;43337;52.070;4.508;2023-05-01T12:04:45;101740.81;;;14.33;100.00
49030;BME280;43337;52.070;4.508;2023-05-01T12:07:21;101730.59;;;14.45;100.00
49030;BME280;43337;52.070;4.508;2023-05-01T12:09:48;101739.03;;;14.54;100.00
49030;BME280;43337;52.070;4.508;2023-05-01T12:12:14;101735.72;;;14.70;100.00
49030;BME280;43337;52.070;4.508;2023-05-01T12:14:40;101724.66;;;14.79;100.00
49030;BME280;43337;52.070;4.508;2023-05-01T12:17:06;101733.56;;;14.97;100.00
49030;BME280;43337;52.070;4.508;2023-05-01T12:19:33;101738.44;;;15.06;100.00
49030;BME280;43337;52.070;4.508;2023-05-01T12:22:08;101730.94;;;15.16;100.00
49030;BME280;43337;52.070;4.508;2023-05-01T12:24:34;101734.94;;;15.24;100.00
49030;BME280;43337;52.070;4.508;2023-05-01T12:27:00;101731.19;;;15.28;100.00
49030;BME280;43337;52.070;4.508;2023-05-01T12:29:38;101733.63;;;15.33;100.00
49030;BME280;43337;52.070;4.508;2023-05-01T12:32:04;101732.47;;;15.38;100.00
49030;BME280;43337;52.070;4.508;2023-05-01T12:34:29;101727.03;;;15.42;100.00
49030;BME280;43337;52.070;4.508;2023-05-01T12:36:58;101732.81;;;15.50;100.00
49030;BME280;43337;52.070;4.508;2023-05-01T12:39:23;101729.94;;;15.54;100.00
49030;BME280;43337;52.070;4.508;2023-05-01T12:41:50;101724.06;;;15.67;100.00
49030;BME280;43337;52.070;4.508;2023-05-01T12:46:53;101724.16;;;15.82;100.00
49030;BME280;43337;52.070;4.508;2023-05-01T12:49:19;101724.69;;;15.89;100.00
49030;BME280;43337;52.070;4.508;2023-05-01T12:51:49;101730.47;;;15.97;100.00
49030;BME280;43337;52.070;4.508;2023-05-01T12:54:28;101741.34;;;16.10;100.00
49030;BME280;43337;52.070;4.508;2023-05-01T12:59:34;101736.38;;;16.37;100.00
49030;BME280;43337;52.070;4.508;2023-05-01T13:02:11;101733.97;;;16.50;100.00
49030;BME280;43337;52.070;4.508;2023-05-01T13:04:37;101723.84;;;16.56;100.00
49030;BME280;43337;52.070;4.508;2023-05-01T13:07:10;101732.50;;;16.60;100.00